sensor_id;sensor_type;location;lat;lon;timestamp;temperature;humidity
37426;DHT22;23285;50.180;7.036;2022-12-15T00:01:01;-0.30;99.90
37426;DHT22;23285;50.180;7.036;2022-12-15T00:04:04;0.00;99.90
37426;DHT22;23285;50.180;7.036;2022-12-15T00:07:08;-0.70;99.90
37426;DHT22;23285;50.180;7.036;2022-12-15T00:13:15;-0.90;99.90
37426;DHT22;23285;50.180;7.036;2022-12-15T00:16:19;-0.70;99.90
37426;DHT22;23285;50.180;7.036;2022-12-15T00:19:22;-0.70;99.90
37426;DHT22;23285;50.180;7.036;2022-12-15T00:22:26;-1.20;99.90
37426;DHT22;23285;50.180;7.036;2022-12-15T00:25:29;-1.10;99.90
37426;DHT22;23285;50.180;7.036;2022-12-15T00:28:32;-1.10;99.90
37426;DHT22;23285;50.180;7.036;2022-12-15T00:31:36;-0.40;99.90
37426;DHT22;23285;50.180;7.036;2022-12-15T00:34:39;-0.90;99.90
37426;DHT22;23285;50.180;7.036;2022-12-15T00:37:43;-1.60;99.90
37426;DHT22;23285;50.180;7.036;2022-12-15T00:43:34;-1.50;99.90
37426;DHT22;23285;50.180;7.036;2022-12-15T00:46:19;-1.40;99.90
37426;DHT22;23285;50.180;7.036;2022-12-15T00:49:25;-0.80;99.90
37426;DHT22;23285;50.180;7.036;2022-12-15T00:52:30;-1.10;99.90
37426;DHT22;23285;50.180;7.036;2022-12-15T00:55:33;-1.30;99.90
37426;DHT22;23285;50.180;7.036;2022-12-15T00:58:37;-1.50;99.90
37426;DHT22;23285;50.180;7.036;2022-12-15T01:07:48;-1.70;99.90
37426;DHT22;23285;50.180;7.036;2022-12-15T01:10:52;-1.30;99.90
37426;DHT22;23285;50.180;7.036;2022-12-15T01:16:59;-1.60;99.90
37426;DHT22;23285;50.180;7.036;2022-12-15T01:20:04;-1.60;99.90
37426;DHT22;23285;50.180;7.036;2022-12-15T01:23:02;-1.10;99.80
37426;DHT22;23285;50.180;7.036;2022-12-15T01:25:50;-1.10;99.00
37426;DHT22;23285;50.180;7.036;2022-12-15T01:28:35;-1.80;99.90
37426;DHT22;23285;50.180;7.036;2022-12-15T01:34:06;-1.70;99.90
37426;DHT22;23285;50.180;7.036;2022-12-15T01:36:51;-1.60;99.10
37426;DHT22;23285;50.180;7.036;2022-12-15T01:56:44;-1.80;99.30
37426;DHT22;23285;50.180;7.036;2022-12-15T01:59:33;-1.90;99.20
37426;DHT22;23285;50.180;7.036;2022-12-15T02:02:22;-1.80;99.20
37426;DHT22;23285;50.180;7.036;2022-12-15T02:07:54;-1.50;99.10
37426;DHT22;23285;50.180;7.036;2022-12-15T02:17:03;-2.50;98.40
37426;DHT22;23285;50.180;7.036;2022-12-15T02:20:04;-2.30;99.60
37426;DHT22;23285;50.180;7.036;2022-12-15T02:29:22;-2.10;98.70
37426;DHT22;23285;50.180;7.036;2022-12-15T02:32:21;-2.00;98.00
37426;DHT22;23285;50.180;7.036;2022-12-15T02:35:15;-2.10;98.70
37426;DHT22;23285;50.180;7.036;2022-12-15T02:38:04;-2.30;98.30
37426;DHT22;23285;50.180;7.036;2022-12-15T02:46:38;-2.00;98.40
37426;DHT22;23285;50.180;7.036;2022-12-15T03:01:33;-2.40;97.80
37426;DHT22;23285;50.180;7.036;2022-12-15T03:04:20;-2.70;98.30
37426;DHT22;23285;50.180;7.036;2022-12-15T03:12:40;-2.60;98.30
37426;DHT22;23285;50.180;7.036;2022-12-15T03:15:25;-2.60;97.40
37426;DHT22;23285;50.180;7.036;2022-12-15T03:18:10;-3.10;97.20
37426;DHT22;23285;50.180;7.036;2022-12-15T03:20:55;-3.20;98.40
37426;DHT22;23285;50.180;7.036;2022-12-15T03:23:40;-3.10;98.00
37426;DHT22;23285;50.180;7.036;2022-12-15T03:29:10;-3.00;98.80
37426;DHT22;23285;50.180;7.036;2022-12-15T03:31:55;-2.90;97.80
37426;DHT22;23285;50.180;7.036;2022-12-15T03:34:40;-2.20;97.50
37426;DHT22;23285;50.180;7.036;2022-12-15T03:37:26;-2.00;97.60
37426;DHT22;23285;50.180;7.036;2022-12-15T03:45:45;-2.70;98.70
37426;DHT22;23285;50.180;7.036;2022-12-15T03:48:30;-2.50;97.80
37426;DHT22;23285;50.180;7.036;2022-12-15T03:51:15;-2.70;97.40
37426;DHT22;23285;50.180;7.036;2022-12-15T03:54:00;-2.80;97.00
37426;DHT22;23285;50.180;7.036;2022-12-15T03:56:45;-3.50;98.10
37426;DHT22;23285;50.180;7.036;2022-12-15T03:59:30;-3.10;98.10
37426;DHT22;23285;50.180;7.036;2022-12-15T04:02:15;-3.10;97.20
37426;DHT22;23285;50.180;7.036;2022-12-15T04:05:01;-3.20;97.40
37426;DHT22;23285;50.180;7.036;2022-12-15T04:07:46;-2.70;97.50
37426;DHT22;23285;50.180;7.036;2022-12-15T04:10:33;-2.40;96.90
37426;DHT22;23285;50.180;7.036;2022-12-15T04:13:18;-2.50;97.50
37426;DHT22;23285;50.180;7.036;2022-12-15T04:18:49;-3.00;98.30
37426;DHT22;23285;50.180;7.036;2022-12-15T04:21:53;-2.50;97.50
37426;DHT22;23285;50.180;7.036;2022-12-15T04:24:38;-2.40;96.80
37426;DHT22;23285;50.180;7.036;2022-12-15T04:27:42;-2.40;96.80
37426;DHT22;23285;50.180;7.036;2022-12-15T04:33:55;-2.40;97.00
37426;DHT22;23285;50.180;7.036;2022-12-15T04:36:59;-2.20;96.30
37426;DHT22;23285;50.180;7.036;2022-12-15T04:40:04;-2.40;96.10
37426;DHT22;23285;50.180;7.036;2022-12-15T04:43:08;-2.60;95.80
37426;DHT22;23285;50.180;7.036;2022-12-15T04:46:11;-2.50;96.80
37426;DHT22;23285;50.180;7.036;2022-12-15T04:49:15;-2.60;96.70
37426;DHT22;23285;50.180;7.036;2022-12-15T04:55:22;-2.90;95.80
37426;DHT22;23285;50.180;7.036;2022-12-15T05:01:30;-4.10;97.70
37426;DHT22;23285;50.180;7.036;2022-12-15T05:07:38;-4.40;97.50
37426;DHT22;23285;50.180;7.036;2022-12-15T05:13:45;-4.30;97.50
37426;DHT22;23285;50.180;7.036;2022-12-15T05:16:48;-4.20;97.60
37426;DHT22;23285;50.180;7.036;2022-12-15T05:22:56;-4.00;96.70
37426;DHT22;23285;50.180;7.036;2022-12-15T05:25:59;-3.70;97.00
37426;DHT22;23285;50.180;7.036;2022-12-15T05:29:03;-3.40;96.40
37426;DHT22;23285;50.180;7.036;2022-12-15T05:32:07;-3.20;96.10
37426;DHT22;23285;50.180;7.036;2022-12-15T05:37:37;-3.70;95.40
37426;DHT22;23285;50.180;7.036;2022-12-15T05:43:08;-3.10;96.20
37426;DHT22;23285;50.180;7.036;2022-12-15T05:45:53;-4.10;95.10
37426;DHT22;23285;50.180;7.036;2022-12-15T05:48:38;-3.90;95.90
37426;DHT22;23285;50.180;7.036;2022-12-15T05:51:23;-3.50;96.40
37426;DHT22;23285;50.180;7.036;2022-12-15T05:54:09;-3.20;95.70
37426;DHT22;23285;50.180;7.036;2022-12-15T05:56:54;-4.00;96.20
37426;DHT22;23285;50.180;7.036;2022-12-15T05:59:39;-4.70;96.00
37426;DHT22;23285;50.180;7.036;2022-12-15T06:02:24;-4.50;96.70
37426;DHT22;23285;50.180;7.036;2022-12-15T06:05:09;-3.80;96.30
37426;DHT22;23285;50.180;7.036;2022-12-15T06:07:54;-3.40;95.80
37426;DHT22;23285;50.180;7.036;2022-12-15T06:10:40;-3.60;95.50
37426;DHT22;23285;50.180;7.036;2022-12-15T06:13:26;-4.20;95.40
37426;DHT22;23285;50.180;7.036;2022-12-15T06:19:00;-4.60;97.00
37426;DHT22;23285;50.180;7.036;2022-12-15T06:21:46;-4.70;98.10
37426;DHT22;23285;50.180;7.036;2022-12-15T06:24:31;-5.30;98.50
37426;DHT22;23285;50.180;7.036;2022-12-15T06:27:16;-5.60;99.40
37426;DHT22;23285;50.180;7.036;2022-12-15T06:30:01;-5.70;98.80
37426;DHT22;23285;50.180;7.036;2022-12-15T06:38:22;-5.50;99.90
37426;DHT22;23285;50.180;7.036;2022-12-15T06:43:53;-5.20;99.10
37426;DHT22;23285;50.180;7.036;2022-12-15T06:46:42;-5.50;98.10
37426;DHT22;23285;50.180;7.036;2022-12-15T06:49:27;-5.50;98.40
37426;DHT22;23285;50.180;7.036;2022-12-15T06:52:12;-5.80;97.20
37426;DHT22;23285;50.180;7.036;2022-12-15T06:54:57;-6.30;98.10
37426;DHT22;23285;50.180;7.036;2022-12-15T07:00:28;-5.20;97.10
37426;DHT22;23285;50.180;7.036;2022-12-15T07:03:15;-4.90;97.20
37426;DHT22;23285;50.180;7.036;2022-12-15T07:06:06;-5.10;97.30
37426;DHT22;23285;50.180;7.036;2022-12-15T07:08:52;-5.40;98.20
37426;DHT22;23285;50.180;7.036;2022-12-15T07:11:38;-5.60;98.20
37426;DHT22;23285;50.180;7.036;2022-12-15T07:14:24;-6.20;99.40
37426;DHT22;23285;50.180;7.036;2022-12-15T07:17:09;-6.20;99.90
37426;DHT22;23285;50.180;7.036;2022-12-15T07:25:25;-4.60;99.90
37426;DHT22;23285;50.180;7.036;2022-12-15T07:28:10;-5.10;98.90
37426;DHT22;23285;50.180;7.036;2022-12-15T07:31:03;-5.10;99.20
37426;DHT22;23285;50.180;7.036;2022-12-15T07:33:49;-5.40;99.90
37426;DHT22;23285;50.180;7.036;2022-12-15T07:36:35;-5.00;98.80
37426;DHT22;23285;50.180;7.036;2022-12-15T07:39:20;-5.60;99.70
37426;DHT22;23285;50.180;7.036;2022-12-15T07:42:05;-5.10;99.90
37426;DHT22;23285;50.180;7.036;2022-12-15T07:44:51;-5.20;99.90
37426;DHT22;23285;50.180;7.036;2022-12-15T07:50:22;-5.70;99.90
37426;DHT22;23285;50.180;7.036;2022-12-15T07:53:07;-5.50;99.90
37426;DHT22;23285;50.180;7.036;2022-12-15T07:58:38;-5.70;99.90
37426;DHT22;23285;50.180;7.036;2022-12-15T08:01:23;-5.40;99.90
37426;DHT22;23285;50.180;7.036;2022-12-15T08:04:09;-5.00;99.90
37426;DHT22;23285;50.180;7.036;2022-12-15T08:06:54;-4.80;99.90
37426;DHT22;23285;50.180;7.036;2022-12-15T08:09:39;-5.00;99.90
37426;DHT22;23285;50.180;7.036;2022-12-15T08:20:40;-4.90;99.90
37426;DHT22;23285;50.180;7.036;2022-12-15T08:23:26;-4.90;99.90
37426;DHT22;23285;50.180;7.036;2022-12-15T08:26:15;-4.90;99.90
37426;DHT22;23285;50.180;7.036;2022-12-15T08:31:47;-4.90;99.90
37426;DHT22;23285;50.180;7.036;2022-12-15T08:34:32;-4.40;99.90
37426;DHT22;23285;50.180;7.036;2022-12-15T08:37:18;-5.00;99.90
37426;DHT22;23285;50.180;7.036;2022-12-15T08:40:03;-5.30;99.90
37426;DHT22;23285;50.180;7.036;2022-12-15T08:42:48;-5.20;99.90
37426;DHT22;23285;50.180;7.036;2022-12-15T08:45:33;-5.10;99.90
37426;DHT22;23285;50.180;7.036;2022-12-15T08:51:04;-4.70;99.90
37426;DHT22;23285;50.180;7.036;2022-12-15T08:53:49;-4.90;99.90
37426;DHT22;23285;50.180;7.036;2022-12-15T08:56:35;-4.80;99.90
37426;DHT22;23285;50.180;7.036;2022-12-15T08:59:20;-4.20;99.90
37426;DHT22;23285;50.180;7.036;2022-12-15T09:02:06;-4.10;99.90
37426;DHT22;23285;50.180;7.036;2022-12-15T09:04:50;-4.60;99.90
37426;DHT22;23285;50.180;7.036;2022-12-15T09:07:35;-4.70;99.90
37426;DHT22;23285;50.180;7.036;2022-12-15T09:10:22;-4.50;99.90
37426;DHT22;23285;50.180;7.036;2022-12-15T09:13:08;-4.00;99.90
37426;DHT22;23285;50.180;7.036;2022-12-15T09:16:07;-4.60;99.90
37426;DHT22;23285;50.180;7.036;2022-12-15T09:18:54;-4.60;99.90
37426;DHT22;23285;50.180;7.036;2022-12-15T09:21:40;-4.10;99.90
37426;DHT22;23285;50.180;7.036;2022-12-15T09:27:14;-3.40;99.90
37426;DHT22;23285;50.180;7.036;2022-12-15T09:30:03;-3.50;99.90
37426;DHT22;23285;50.180;7.036;2022-12-15T09:32:48;-3.60;99.90
37426;DHT22;23285;50.180;7.036;2022-12-15T09:35:33;-3.40;99.90
37426;DHT22;23285;50.180;7.036;2022-12-15T09:38:18;-2.80;99.90
37426;DHT22;23285;50.180;7.036;2022-12-15T09:44:00;-2.90;99.90
37426;DHT22;23285;50.180;7.036;2022-12-15T09:49:54;-1.90;99.90
37426;DHT22;23285;50.180;7.036;2022-12-15T09:55:30;-1.80;99.70
37426;DHT22;23285;50.180;7.036;2022-12-15T10:04:11;-2.10;99.90
37426;DHT22;23285;50.180;7.036;2022-12-15T10:10:23;-1.70;99.90
37426;DHT22;23285;50.180;7.036;2022-12-15T10:13:17;-1.60;99.90
37426;DHT22;23285;50.180;7.036;2022-12-15T10:16:07;-1.50;99.90
37426;DHT22;23285;50.180;7.036;2022-12-15T10:21:57;-1.90;99.90
37426;DHT22;23285;50.180;7.036;2022-12-15T10:30:25;-1.10;99.90
37426;DHT22;23285;50.180;7.036;2022-12-15T10:33:17;-0.60;99.90
37426;DHT22;23285;50.180;7.036;2022-12-15T10:36:11;-0.70;99.90
37426;DHT22;23285;50.180;7.036;2022-12-15T10:38:56;-1.00;99.90
37426;DHT22;23285;50.180;7.036;2022-12-15T10:47:23;-0.80;99.90
37426;DHT22;23285;50.180;7.036;2022-12-15T10:53:07;-0.80;99.90
37426;DHT22;23285;50.180;7.036;2022-12-15T10:55:59;-0.30;99.90
37426;DHT22;23285;50.180;7.036;2022-12-15T10:58:51;-0.10;99.90
37426;DHT22;23285;50.180;7.036;2022-12-15T11:01:35;0.00;99.90
37426;DHT22;23285;50.180;7.036;2022-12-15T11:04:29;-0.50;99.90
37426;DHT22;23285;50.180;7.036;2022-12-15T11:07:14;-0.40;99.90
37426;DHT22;23285;50.180;7.036;2022-12-15T11:10:02;-0.50;99.90
37426;DHT22;23285;50.180;7.036;2022-12-15T11:13:14;-0.40;99.90
37426;DHT22;23285;50.180;7.036;2022-12-15T11:16:16;-0.30;99.90
37426;DHT22;23285;50.180;7.036;2022-12-15T11:19:10;-0.10;99.90
37426;DHT22;23285;50.180;7.036;2022-12-15T11:22:02;0.20;99.90
37426;DHT22;23285;50.180;7.036;2022-12-15T11:24:56;0.10;99.90
37426;DHT22;23285;50.180;7.036;2022-12-15T11:27:44;-0.60;99.90
37426;DHT22;23285;50.180;7.036;2022-12-15T11:33:20;-0.30;99.90
37426;DHT22;23285;50.180;7.036;2022-12-15T11:54:29;-0.30;99.90
37426;DHT22;23285;50.180;7.036;2022-12-15T12:00:20;1.30;99.90
37426;DHT22;23285;50.180;7.036;2022-12-15T12:06:15;0.70;99.90
37426;DHT22;23285;50.180;7.036;2022-12-15T12:09:15;1.20;99.90
37426;DHT22;23285;50.180;7.036;2022-12-15T12:21:46;4.00;99.90
37426;DHT22;23285;50.180;7.036;2022-12-15T12:30:24;4.50;98.90
37426;DHT22;23285;50.180;7.036;2022-12-15T12:33:24;4.40;98.70
37426;DHT22;23285;50.180;7.036;2022-12-15T12:38:58;3.90;98.90
37426;DHT22;23285;50.180;7.036;2022-12-15T12:44:38;4.80;98.90
37426;DHT22;23285;50.180;7.036;2022-12-15T12:47:29;4.00;98.40
37426;DHT22;23285;50.180;7.036;2022-12-15T12:53:04;3.00;99.80
37426;DHT22;23285;50.180;7.036;2022-12-15T12:55:49;2.50;99.80
37426;DHT22;23285;50.180;7.036;2022-12-15T12:58:38;2.90;98.70
37426;DHT22;23285;50.180;7.036;2022-12-15T13:01:30;2.80;99.90
37426;DHT22;23285;50.180;7.036;2022-12-15T13:07:32;2.30;99.90
37426;DHT22;23285;50.180;7.036;2022-12-15T13:21:52;4.70;99.50
37426;DHT22;23285;50.180;7.036;2022-12-15T13:27:35;4.60;99.50
37426;DHT22;23285;50.180;7.036;2022-12-15T13:33:15;7.40;97.20
37426;DHT22;23285;50.180;7.036;2022-12-15T13:44:40;6.20;96.80
37426;DHT22;23285;50.180;7.036;2022-12-15T13:47:28;7.50;94.40
37426;DHT22;23285;50.180;7.036;2022-12-15T13:53:24;7.00;95.90
37426;DHT22;23285;50.180;7.036;2022-12-15T13:59:01;5.90;95.50
37426;DHT22;23285;50.180;7.036;2022-12-15T14:01:49;5.40;96.40
37426;DHT22;23285;50.180;7.036;2022-12-15T14:04:34;5.10;97.10
37426;DHT22;23285;50.180;7.036;2022-12-15T14:07:19;6.50;96.10
37426;DHT22;23285;50.180;7.036;2022-12-15T14:10:06;7.50;93.80
37426;DHT22;23285;50.180;7.036;2022-12-15T14:13:05;8.30;93.30
37426;DHT22;23285;50.180;7.036;2022-12-15T14:18:41;7.30;92.90
37426;DHT22;23285;50.180;7.036;2022-12-15T14:21:26;6.80;93.20
37426;DHT22;23285;50.180;7.036;2022-12-15T14:24:41;6.10;93.80
37426;DHT22;23285;50.180;7.036;2022-12-15T14:30:31;7.10;93.60
37426;DHT22;23285;50.180;7.036;2022-12-15T14:33:17;6.60;92.70
37426;DHT22;23285;50.180;7.036;2022-12-15T14:36:06;6.10;92.80
37426;DHT22;23285;50.180;7.036;2022-12-15T14:38:58;5.40;93.90
37426;DHT22;23285;50.180;7.036;2022-12-15T14:41:45;5.60;94.80
37426;DHT22;23285;50.180;7.036;2022-12-15T14:44:36;5.30;93.80
37426;DHT22;23285;50.180;7.036;2022-12-15T14:53:04;6.00;94.50
37426;DHT22;23285;50.180;7.036;2022-12-15T14:55:49;6.70;92.40
37426;DHT22;23285;50.180;7.036;2022-12-15T14:58:39;6.40;91.20
37426;DHT22;23285;50.180;7.036;2022-12-15T15:01:34;6.40;91.80
37426;DHT22;23285;50.180;7.036;2022-12-15T15:04:23;6.70;91.60
37426;DHT22;23285;50.180;7.036;2022-12-15T15:07:17;4.90;92.00
37426;DHT22;23285;50.180;7.036;2022-12-15T15:10:15;3.20;93.30
37426;DHT22;23285;50.180;7.036;2022-12-15T15:13:04;1.90;95.40
37426;DHT22;23285;50.180;7.036;2022-12-15T15:16:00;1.80;95.70
37426;DHT22;23285;50.180;7.036;2022-12-15T15:21:36;3.10;93.90
37426;DHT22;23285;50.180;7.036;2022-12-15T15:30:19;-0.10;98.40
37426;DHT22;23285;50.180;7.036;2022-12-15T15:33:07;0.10;98.00
37426;DHT22;23285;50.180;7.036;2022-12-15T15:35:55;0.00;97.00
37426;DHT22;23285;50.180;7.036;2022-12-15T15:41:31;1.10;96.70
37426;DHT22;23285;50.180;7.036;2022-12-15T15:44:17;0.40;96.30
37426;DHT22;23285;50.180;7.036;2022-12-15T15:47:02;0.90;95.30
37426;DHT22;23285;50.180;7.036;2022-12-15T15:49:51;-0.30;96.10
37426;DHT22;23285;50.180;7.036;2022-12-15T15:52:37;-1.10;97.60
37426;DHT22;23285;50.180;7.036;2022-12-15T15:58:13;-1.50;98.00
37426;DHT22;23285;50.180;7.036;2022-12-15T16:00:58;-2.20;97.90
37426;DHT22;23285;50.180;7.036;2022-12-15T16:06:31;-0.80;97.60
37426;DHT22;23285;50.180;7.036;2022-12-15T16:09:16;-0.60;95.70
37426;DHT22;23285;50.180;7.036;2022-12-15T16:12:01;-1.30;95.40
37426;DHT22;23285;50.180;7.036;2022-12-15T16:14:46;-1.70;96.30
37426;DHT22;23285;50.180;7.036;2022-12-15T16:17:32;-1.90;96.90
37426;DHT22;23285;50.180;7.036;2022-12-15T16:20:19;-1.60;96.70
37426;DHT22;23285;50.180;7.036;2022-12-15T16:23:16;-1.20;96.40
37426;DHT22;23285;50.180;7.036;2022-12-15T16:26:01;-2.00;97.00
37426;DHT22;23285;50.180;7.036;2022-12-15T16:28:46;-1.80;97.10
37426;DHT22;23285;50.180;7.036;2022-12-15T16:31:34;-2.10;96.80
37426;DHT22;23285;50.180;7.036;2022-12-15T16:34:22;-2.20;97.40
37426;DHT22;23285;50.180;7.036;2022-12-15T16:37:25;-2.80;97.70
37426;DHT22;23285;50.180;7.036;2022-12-15T16:40:19;-3.00;98.90
37426;DHT22;23285;50.180;7.036;2022-12-15T16:43:19;-3.20;98.60
37426;DHT22;23285;50.180;7.036;2022-12-15T16:46:04;-3.40;99.50
37426;DHT22;23285;50.180;7.036;2022-12-15T16:48:49;-3.50;99.00
37426;DHT22;23285;50.180;7.036;2022-12-15T16:51:45;-3.30;98.70
37426;DHT22;23285;50.180;7.036;2022-12-15T16:54:31;-3.20;99.00
37426;DHT22;23285;50.180;7.036;2022-12-15T17:00:09;-2.50;99.20
37426;DHT22;23285;50.180;7.036;2022-12-15T17:09:21;-2.00;97.90
37426;DHT22;23285;50.180;7.036;2022-12-15T17:12:12;-2.60;98.30
37426;DHT22;23285;50.180;7.036;2022-12-15T17:14:59;-2.60;99.00
37426;DHT22;23285;50.180;7.036;2022-12-15T17:17:46;-2.10;98.20
37426;DHT22;23285;50.180;7.036;2022-12-15T17:20:31;-2.00;97.10
37426;DHT22;23285;50.180;7.036;2022-12-15T17:26:03;-1.90;98.30
37426;DHT22;23285;50.180;7.036;2022-12-15T17:28:50;-0.90;97.30
37426;DHT22;23285;50.180;7.036;2022-12-15T17:34:25;-1.90;97.80
37426;DHT22;23285;50.180;7.036;2022-12-15T17:37:12;-1.60;97.50
37426;DHT22;23285;50.180;7.036;2022-12-15T17:39:57;-1.60;97.10
37426;DHT22;23285;50.180;7.036;2022-12-15T17:42:43;-1.90;97.30
37426;DHT22;23285;50.180;7.036;2022-12-15T17:45:28;-2.10;98.90
37426;DHT22;23285;50.180;7.036;2022-12-15T17:48:13;-1.60;97.80
37426;DHT22;23285;50.180;7.036;2022-12-15T17:50:58;-1.10;97.40
37426;DHT22;23285;50.180;7.036;2022-12-15T17:53:45;-1.10;96.80
37426;DHT22;23285;50.180;7.036;2022-12-15T17:56:30;-0.90;97.10
37426;DHT22;23285;50.180;7.036;2022-12-15T17:59:18;-1.30;95.90
37426;DHT22;23285;50.180;7.036;2022-12-15T18:07:35;-0.80;97.20
37426;DHT22;23285;50.180;7.036;2022-12-15T18:10:35;-1.20;96.70
37426;DHT22;23285;50.180;7.036;2022-12-15T18:13:26;-1.50;97.50
37426;DHT22;23285;50.180;7.036;2022-12-15T18:16:12;-1.60;98.10
37426;DHT22;23285;50.180;7.036;2022-12-15T18:18:57;-1.50;97.20
37426;DHT22;23285;50.180;7.036;2022-12-15T18:21:43;-1.10;97.20
37426;DHT22;23285;50.180;7.036;2022-12-15T18:24:29;-1.10;96.60
37426;DHT22;23285;50.180;7.036;2022-12-15T18:27:23;-1.10;96.90
37426;DHT22;23285;50.180;7.036;2022-12-15T18:30:13;-1.00;97.20
37426;DHT22;23285;50.180;7.036;2022-12-15T18:32:59;-0.90;97.40
37426;DHT22;23285;50.180;7.036;2022-12-15T18:35:45;-0.70;96.30
37426;DHT22;23285;50.180;7.036;2022-12-15T18:38:31;-0.50;96.70
37426;DHT22;23285;50.180;7.036;2022-12-15T18:41:17;-1.20;95.90
37426;DHT22;23285;50.180;7.036;2022-12-15T18:44:03;-1.30;97.60
37426;DHT22;23285;50.180;7.036;2022-12-15T18:46:48;-1.60;97.20
37426;DHT22;23285;50.180;7.036;2022-12-15T18:49:33;-1.40;96.80
37426;DHT22;23285;50.180;7.036;2022-12-15T18:55:14;-1.10;97.50
37426;DHT22;23285;50.180;7.036;2022-12-15T19:00:46;-1.20;97.50
37426;DHT22;23285;50.180;7.036;2022-12-15T19:09:19;-1.40;97.40
37426;DHT22;23285;50.180;7.036;2022-12-15T19:12:13;-1.20;96.70
37426;DHT22;23285;50.180;7.036;2022-12-15T19:15:01;-1.10;97.00
37426;DHT22;23285;50.180;7.036;2022-12-15T19:17:46;-1.60;96.10
37426;DHT22;23285;50.180;7.036;2022-12-15T19:20:50;-1.70;97.20
37426;DHT22;23285;50.180;7.036;2022-12-15T19:23:53;-1.60;97.40
37426;DHT22;23285;50.180;7.036;2022-12-15T19:29:24;-1.70;97.50
37426;DHT22;23285;50.180;7.036;2022-12-15T19:32:09;-1.60;96.70
37426;DHT22;23285;50.180;7.036;2022-12-15T19:37:41;-1.70;97.30
37426;DHT22;23285;50.180;7.036;2022-12-15T19:40:30;-1.50;97.70
37426;DHT22;23285;50.180;7.036;2022-12-15T19:43:16;-1.20;97.40
37426;DHT22;23285;50.180;7.036;2022-12-15T19:51:32;-1.50;97.50
37426;DHT22;23285;50.180;7.036;2022-12-15T19:57:13;-1.90;98.30
37426;DHT22;23285;50.180;7.036;2022-12-15T19:59:58;-1.70;97.80
37426;DHT22;23285;50.180;7.036;2022-12-15T20:05:28;-1.40;97.10
37426;DHT22;23285;50.180;7.036;2022-12-15T20:08:24;-1.50;96.40
37426;DHT22;23285;50.180;7.036;2022-12-15T20:16:58;-1.40;96.80
37426;DHT22;23285;50.180;7.036;2022-12-15T20:19:43;-1.50;96.00
37426;DHT22;23285;50.180;7.036;2022-12-15T20:22:28;-1.80;96.60
37426;DHT22;23285;50.180;7.036;2022-12-15T20:28:05;-1.80;97.40
37426;DHT22;23285;50.180;7.036;2022-12-15T20:30:52;-1.80;97.80
37426;DHT22;23285;50.180;7.036;2022-12-15T20:33:37;-1.70;97.70
37426;DHT22;23285;50.180;7.036;2022-12-15T20:36:25;-1.70;97.70
37426;DHT22;23285;50.180;7.036;2022-12-15T20:42:14;-1.80;98.10
37426;DHT22;23285;50.180;7.036;2022-12-15T20:45:00;-1.90;98.20
37426;DHT22;23285;50.180;7.036;2022-12-15T20:47:47;-1.90;97.30
37426;DHT22;23285;50.180;7.036;2022-12-15T20:50:38;-1.60;98.10
37426;DHT22;23285;50.180;7.036;2022-12-15T20:53:25;-1.60;97.30
37426;DHT22;23285;50.180;7.036;2022-12-15T20:56:11;-1.50;97.40
37426;DHT22;23285;50.180;7.036;2022-12-15T20:58:56;-1.70;97.20
37426;DHT22;23285;50.180;7.036;2022-12-15T21:01:42;-1.70;96.90
37426;DHT22;23285;50.180;7.036;2022-12-15T21:04:29;-1.70;97.60
37426;DHT22;23285;50.180;7.036;2022-12-15T21:07:15;-1.60;97.20
37426;DHT22;23285;50.180;7.036;2022-12-15T21:10:00;-1.70;97.20
37426;DHT22;23285;50.180;7.036;2022-12-15T21:12:47;-1.80;96.70
37426;DHT22;23285;50.180;7.036;2022-12-15T21:15:33;-2.00;97.80
37426;DHT22;23285;50.180;7.036;2022-12-15T21:18:19;-1.70;97.30
37426;DHT22;23285;50.180;7.036;2022-12-15T21:21:08;-1.90;97.40
37426;DHT22;23285;50.180;7.036;2022-12-15T21:26:41;-1.80;97.40
37426;DHT22;23285;50.180;7.036;2022-12-15T21:29:27;-1.90;96.40
37426;DHT22;23285;50.180;7.036;2022-12-15T21:34:57;-2.10;97.50
37426;DHT22;23285;50.180;7.036;2022-12-15T21:40:29;-1.90;97.90
37426;DHT22;23285;50.180;7.036;2022-12-15T21:43:14;-1.90;97.00
37426;DHT22;23285;50.180;7.036;2022-12-15T21:46:00;-2.00;97.30
37426;DHT22;23285;50.180;7.036;2022-12-15T21:51:56;-1.80;97.90
37426;DHT22;23285;50.180;7.036;2022-12-15T21:57:27;-1.90;97.50
37426;DHT22;23285;50.180;7.036;2022-12-15T22:00:14;-1.70;96.50
37426;DHT22;23285;50.180;7.036;2022-12-15T22:03:00;-1.80;97.50
37426;DHT22;23285;50.180;7.036;2022-12-15T22:05:45;-1.90;97.10
37426;DHT22;23285;50.180;7.036;2022-12-15T22:08:30;-1.90;96.90
37426;DHT22;23285;50.180;7.036;2022-12-15T22:17:15;-2.30;97.60
37426;DHT22;23285;50.180;7.036;2022-12-15T22:20:00;-2.40;98.20
37426;DHT22;23285;50.180;7.036;2022-12-15T22:22:45;-2.70;97.50
37426;DHT22;23285;50.180;7.036;2022-12-15T22:25:31;-2.40;99.00
37426;DHT22;23285;50.180;7.036;2022-12-15T22:28:24;-2.30;97.80
37426;DHT22;23285;50.180;7.036;2022-12-15T22:31:10;-2.30;98.30
37426;DHT22;23285;50.180;7.036;2022-12-15T22:33:55;-2.20;97.20
37426;DHT22;23285;50.180;7.036;2022-12-15T22:36:40;-2.70;96.80
37426;DHT22;23285;50.180;7.036;2022-12-15T22:39:25;-2.90;98.10
37426;DHT22;23285;50.180;7.036;2022-12-15T22:42:14;-2.80;97.60
37426;DHT22;23285;50.180;7.036;2022-12-15T22:45:00;-2.70;98.60
37426;DHT22;23285;50.180;7.036;2022-12-15T22:47:46;-2.60;97.80
37426;DHT22;23285;50.180;7.036;2022-12-15T22:50:32;-2.80;98.20
37426;DHT22;23285;50.180;7.036;2022-12-15T22:53:18;-2.60;97.30
37426;DHT22;23285;50.180;7.036;2022-12-15T22:59:39;-2.80;97.70
37426;DHT22;23285;50.180;7.036;2022-12-15T23:07:59;-2.20;97.00
37426;DHT22;23285;50.180;7.036;2022-12-15T23:10:44;-2.20;96.00
37426;DHT22;23285;50.180;7.036;2022-12-15T23:13:48;-2.50;96.60
37426;DHT22;23285;50.180;7.036;2022-12-15T23:16:34;-2.20;96.00
37426;DHT22;23285;50.180;7.036;2022-12-15T23:19:19;-2.20;96.20
37426;DHT22;23285;50.180;7.036;2022-12-15T23:22:07;-2.20;96.90
37426;DHT22;23285;50.180;7.036;2022-12-15T23:27:37;-3.10;96.90
37426;DHT22;23285;50.180;7.036;2022-12-15T23:30:22;-2.70;96.30
37426;DHT22;23285;50.180;7.036;2022-12-15T23:33:07;-2.60;96.60
37426;DHT22;23285;50.180;7.036;2022-12-15T23:35:56;-2.50;96.10
37426;DHT22;23285;50.180;7.036;2022-12-15T23:38:41;-2.40;96.50
37426;DHT22;23285;50.180;7.036;2022-12-15T23:41:26;-2.30;95.70
37426;DHT22;23285;50.180;7.036;2022-12-15T23:44:13;-2.50;95.70
37426;DHT22;23285;50.180;7.036;2022-12-15T23:46:57;-2.60;95.30
37426;DHT22;23285;50.180;7.036;2022-12-15T23:49:42;-2.70;95.50
37426;DHT22;23285;50.180;7.036;2022-12-15T23:52:28;-2.70;95.80
37426;DHT22;23285;50.180;7.036;2022-12-15T23:55:13;-2.20;95.80
37426;DHT22;23285;50.180;7.036;2022-12-15T23:57:58;-2.40;95.30
